sensor_id;sensor_type;location;lat;lon;timestamp;pressure;altitude;pressure_sealevel;temperature;humidity
8483;BME280;4278;42.668;23.312;2023-06-14T00:02:22;94214.59;;;17.33;100.00
8483;BME280;4278;42.668;23.312;2023-06-14T00:04:48;94209.00;;;17.37;100.00
8483;BME280;4278;42.668;23.312;2023-06-14T00:07:16;94217.56;;;17.39;100.00
8483;BME280;4278;42.668;23.312;2023-06-14T00:09:44;94217.41;;;17.42;100.00
8483;BME280;4278;42.668;23.312;2023-06-14T00:12:10;94209.53;;;17.44;100.00
8483;BME280;4278;42.668;23.312;2023-06-14T00:14:39;94208.09;;;17.52;100.00
8483;BME280;4278;42.668;23.312;2023-06-14T00:17:05;94209.44;;;17.48;100.00
8483;BME280;4278;42.668;23.312;2023-06-14T00:19:32;94208.78;;;17.44;100.00
8483;BME280;4278;42.668;23.312;2023-06-14T00:22:01;94200.88;;;17.46;100.00
8483;BME280;4278;42.668;23.312;2023-06-14T00:24:28;94203.94;;;17.48;100.00
8483;BME280;4278;42.668;23.312;2023-06-14T00:26:55;94200.94;;;17.42;100.00
8483;BME280;4278;42.668;23.312;2023-06-14T00:29:22;94200.88;;;17.46;100.00
8483;BME280;4278;42.668;23.312;2023-06-14T00:31:50;94201.31;;;17.44;100.00
8483;BME280;4278;42.668;23.312;2023-06-14T00:34:17;94200.53;;;17.44;100.00
8483;BME280;4278;42.668;23.312;2023-06-14T00:36:43;94208.78;;;17.44;100.00
8483;BME280;4278;42.668;23.312;2023-06-14T00:39:10;94200.19;;;17.42;100.00
8483;BME280;4278;42.668;23.312;2023-06-14T00:41:37;94189.66;;;17.40;100.00
8483;BME280;4278;42.668;23.312;2023-06-14T00:44:04;94192.28;;;17.44;100.00
8483;BME280;4278;42.668;23.312;2023-06-14T00:46:31;94190.66;;;17.46;100.00
8483;BME280;4278;42.668;23.312;2023-06-14T00:49:01;94181.72;;;17.42;100.00
8483;BME280;4278;42.668;23.312;2023-06-14T00:51:28;94187.75;;;17.50;100.00
8483;BME280;4278;42.668;23.312;2023-06-14T00:53:54;94185.25;;;17.43;100.00
8483;BME280;4278;42.668;23.312;2023-06-14T00:56:21;94182.88;;;17.45;100.00
8483;BME280;4278;42.668;23.312;2023-06-14T00:58:49;94183.94;;;17.47;100.00
8483;BME280;4278;42.668;23.312;2023-06-14T01:01:16;94194.38;;;17.52;100.00
8483;BME280;4278;42.668;23.312;2023-06-14T01:03:43;94187.31;;;17.51;100.00
8483;BME280;4278;42.668;23.312;2023-06-14T01:09:06;94181.63;;;17.46;100.00
8483;BME280;4278;42.668;23.312;2023-06-14T01:11:41;94188.34;;;17.45;100.00
8483;BME280;4278;42.668;23.312;2023-06-14T01:14:12;94185.25;;;17.43;100.00
8483;BME280;4278;42.668;23.312;2023-06-14T01:16:40;94184.47;;;17.42;100.00
8483;BME280;4278;42.668;23.312;2023-06-14T01:19:10;94184.63;;;17.39;100.00
8483;BME280;4278;42.668;23.312;2023-06-14T01:21:40;94183.06;;;17.38;100.00
8483;BME280;4278;42.668;23.312;2023-06-14T01:24:09;94191.28;;;17.38;100.00
8483;BME280;4278;42.668;23.312;2023-06-14T01:26:38;94179.88;;;17.39;100.00
8483;BME280;4278;42.668;23.312;2023-06-14T01:29:11;94186.13;;;17.40;100.00
8483;BME280;4278;42.668;23.312;2023-06-14T01:31:43;94188.53;;;17.38;100.00
8483;BME280;4278;42.668;23.312;2023-06-14T01:34:11;94186.25;;;17.36;100.00
8483;BME280;4278;42.668;23.312;2023-06-14T01:36:40;94176.69;;;17.41;100.00
8483;BME280;4278;42.668;23.312;2023-06-14T01:39:09;94180.19;;;17.41;100.00
8483;BME280;4278;42.668;23.312;2023-06-14T01:41:37;94192.06;;;17.38;100.00
8483;BME280;4278;42.668;23.312;2023-06-14T01:44:04;94186.47;;;17.42;100.00
8483;BME280;4278;42.668;23.312;2023-06-14T01:46:32;94187.34;;;17.39;100.00
8483;BME280;4278;42.668;23.312;2023-06-14T01:48:59;94187.03;;;17.37;100.00
8483;BME280;4278;42.668;23.312;2023-06-14T01:51:25;94182.75;;;17.36;100.00
8483;BME280;4278;42.668;23.312;2023-06-14T01:53:52;94183.06;;;17.38;100.00
8483;BME280;4278;42.668;23.312;2023-06-14T01:56:20;94179.44;;;17.41;100.00
8483;BME280;4278;42.668;23.312;2023-06-14T01:58:47;94191.63;;;17.40;100.00
8483;BME280;4278;42.668;23.312;2023-06-14T02:01:15;94197.22;;;17.36;100.00
8483;BME280;4278;42.668;23.312;2023-06-14T02:03:42;94194.19;;;17.34;100.00
8483;BME280;4278;42.668;23.312;2023-06-14T02:06:10;94192.19;;;17.35;100.00
8483;BME280;4278;42.668;23.312;2023-06-14T02:08:38;94196.25;;;17.30;100.00
8483;BME280;4278;42.668;23.312;2023-06-14T02:11:05;94201.88;;;17.27;100.00
8483;BME280;4278;42.668;23.312;2023-06-14T02:13:33;94198.25;;;17.30;100.00
8483;BME280;4278;42.668;23.312;2023-06-14T02:16:00;94218.66;;;17.29;100.00
8483;BME280;4278;42.668;23.312;2023-06-14T02:18:27;94189.53;;;17.10;100.00
8483;BME280;4278;42.668;23.312;2023-06-14T02:20:54;94213.88;;;17.20;100.00
8483;BME280;4278;42.668;23.312;2023-06-14T02:23:21;94218.28;;;17.18;100.00
8483;BME280;4278;42.668;23.312;2023-06-14T02:25:47;94215.53;;;17.18;100.00
8483;BME280;4278;42.668;23.312;2023-06-14T02:28:15;94222.34;;;17.13;100.00
8483;BME280;4278;42.668;23.312;2023-06-14T02:30:43;94218.19;;;17.09;100.00
8483;BME280;4278;42.668;23.312;2023-06-14T02:33:10;94211.59;;;17.06;100.00
8483;BME280;4278;42.668;23.312;2023-06-14T02:35:38;94208.53;;;17.04;100.00
8483;BME280;4278;42.668;23.312;2023-06-14T02:38:05;94220.50;;;17.10;100.00
8483;BME280;4278;42.668;23.312;2023-06-14T02:40:32;94220.94;;;17.09;100.00
8483;BME280;4278;42.668;23.312;2023-06-14T02:42:59;94219.72;;;17.10;100.00
8483;BME280;4278;42.668;23.312;2023-06-14T02:45:25;94215.00;;;16.98;100.00
8483;BME280;4278;42.668;23.312;2023-06-14T02:47:53;94209.50;;;17.10;100.00
8483;BME280;4278;42.668;23.312;2023-06-14T02:50:21;94214.56;;;17.12;100.00
8483;BME280;4278;42.668;23.312;2023-06-14T02:52:49;94216.44;;;17.02;100.00
8483;BME280;4278;42.668;23.312;2023-06-14T02:55:16;94223.56;;;17.00;100.00
8483;BME280;4278;42.668;23.312;2023-06-14T02:57:43;94214.13;;;17.01;100.00
8483;BME280;4278;42.668;23.312;2023-06-14T03:00:10;94218.72;;;17.04;100.00
8483;BME280;4278;42.668;23.312;2023-06-14T03:02:38;94212.91;;;17.02;100.00
8483;BME280;4278;42.668;23.312;2023-06-14T03:05:07;94219.72;;;16.97;100.00
8483;BME280;4278;42.668;23.312;2023-06-14T03:07:35;94220.06;;;16.87;100.00
8483;BME280;4278;42.668;23.312;2023-06-14T03:10:07;94226.31;;;16.87;100.00
8483;BME280;4278;42.668;23.312;2023-06-14T03:12:35;94228.72;;;16.85;100.00
8483;BME280;4278;42.668;23.312;2023-06-14T03:15:02;94235.88;;;16.83;100.00
8483;BME280;4278;42.668;23.312;2023-06-14T03:17:29;94234.78;;;16.80;100.00
8483;BME280;4278;42.668;23.312;2023-06-14T03:19:59;94238.28;;;16.81;100.00
8483;BME280;4278;42.668;23.312;2023-06-14T03:22:27;94236.75;;;16.80;100.00
8483;BME280;4278;42.668;23.312;2023-06-14T03:24:54;94230.94;;;16.78;100.00
8483;BME280;4278;42.668;23.312;2023-06-14T03:27:21;94230.50;;;16.79;100.00
8483;BME280;4278;42.668;23.312;2023-06-14T03:29:47;94238.19;;;16.84;100.00
8483;BME280;4278;42.668;23.312;2023-06-14T03:32:14;94233.13;;;16.83;100.00
8483;BME280;4278;42.668;23.312;2023-06-14T03:34:41;94236.53;;;16.87;100.00
8483;BME280;4278;42.668;23.312;2023-06-14T03:37:10;94241.81;;;16.94;100.00
8483;BME280;4278;42.668;23.312;2023-06-14T03:39:38;94241.81;;;16.94;100.00
8483;BME280;4278;42.668;23.312;2023-06-14T03:42:12;94247.28;;;16.94;100.00
8483;BME280;4278;42.668;23.312;2023-06-14T03:44:39;94242.88;;;16.96;100.00
8483;BME280;4278;42.668;23.312;2023-06-14T03:47:06;94244.66;;;17.03;100.00
8483;BME280;4278;42.668;23.312;2023-06-14T03:49:33;94245.28;;;17.07;100.00
8483;BME280;4278;42.668;23.312;2023-06-14T03:52:00;94241.03;;;17.06;100.00
8483;BME280;4278;42.668;23.312;2023-06-14T03:54:27;94241.34;;;17.08;100.00
8483;BME280;4278;42.668;23.312;2023-06-14T03:56:55;94247.59;;;17.08;100.00
8483;BME280;4278;42.668;23.312;2023-06-14T03:59:23;94252.31;;;17.08;100.00
8483;BME280;4278;42.668;23.312;2023-06-14T04:01:51;94224.66;;;16.90;100.00
8483;BME280;4278;42.668;23.312;2023-06-14T04:04:18;94254.75;;;17.06;100.00
8483;BME280;4278;42.668;23.312;2023-06-14T04:06:46;94256.28;;;17.07;100.00
8483;BME280;4278;42.668;23.312;2023-06-14T04:09:13;94251.44;;;17.11;100.00
8483;BME280;4278;42.668;23.312;2023-06-14T04:11:40;94246.19;;;17.04;100.00
8483;BME280;4278;42.668;23.312;2023-06-14T04:14:08;94255.81;;;17.08;100.00
8483;BME280;4278;42.668;23.312;2023-06-14T04:16:35;94250.53;;;17.14;100.00
8483;BME280;4278;42.668;23.312;2023-06-14T04:19:02;94246.06;;;17.07;100.00
8483;BME280;4278;42.668;23.312;2023-06-14T04:21:29;94246.28;;;17.13;100.00
8483;BME280;4278;42.668;23.312;2023-06-14T04:23:56;94245.94;;;17.11;100.00
8483;BME280;4278;42.668;23.312;2023-06-14T04:26:22;94244.41;;;17.22;100.00
8483;BME280;4278;42.668;23.312;2023-06-14T04:28:55;94244.47;;;17.44;100.00
8483;BME280;4278;42.668;23.312;2023-06-14T04:31:23;94255.31;;;17.60;100.00
8483;BME280;4278;42.668;23.312;2023-06-14T04:33:51;94247.00;;;17.72;100.00
8483;BME280;4278;42.668;23.312;2023-06-14T04:36:19;94251.84;;;17.81;100.00
8483;BME280;4278;42.668;23.312;2023-06-14T04:38:46;94249.72;;;17.85;100.00
8483;BME280;4278;42.668;23.312;2023-06-14T04:41:14;94253.31;;;17.94;100.00
8483;BME280;4278;42.668;23.312;2023-06-14T04:43:41;94253.38;;;18.03;100.00
8483;BME280;4278;42.668;23.312;2023-06-14T04:46:08;94255.34;;;18.24;100.00
8483;BME280;4278;42.668;23.312;2023-06-14T04:48:39;94261.50;;;18.28;100.00
8483;BME280;4278;42.668;23.312;2023-06-14T04:51:06;94259.19;;;18.27;100.00
8483;BME280;4278;42.668;23.312;2023-06-14T04:53:33;94236.50;;;18.14;100.00
8483;BME280;4278;42.668;23.312;2023-06-14T04:56:00;94268.06;;;18.31;100.00
8483;BME280;4278;42.668;23.312;2023-06-14T04:58:28;94267.41;;;18.39;100.00
8483;BME280;4278;42.668;23.312;2023-06-14T05:00:55;94266.63;;;18.39;100.00
8483;BME280;4278;42.668;23.312;2023-06-14T05:03:24;94273.53;;;18.43;100.00
8483;BME280;4278;42.668;23.312;2023-06-14T05:05:53;94280.38;;;18.39;100.00
8483;BME280;4278;42.668;23.312;2023-06-14T05:08:20;94281.00;;;18.43;100.00
8483;BME280;4278;42.668;23.312;2023-06-14T05:10:49;94279.81;;;18.44;100.00
8483;BME280;4278;42.668;23.312;2023-06-14T05:13:16;94277.06;;;18.44;100.00
8483;BME280;4278;42.668;23.312;2023-06-14T05:15:43;94279.22;;;18.49;100.00
8483;BME280;4278;42.668;23.312;2023-06-14T05:18:10;94281.22;;;18.49;100.00
8483;BME280;4278;42.668;23.312;2023-06-14T05:20:38;94281.72;;;18.56;100.00
8483;BME280;4278;42.668;23.312;2023-06-14T05:23:08;94293.06;;;18.67;100.00
8483;BME280;4278;42.668;23.312;2023-06-14T05:25:41;94292.94;;;18.71;100.00
8483;BME280;4278;42.668;23.312;2023-06-14T05:28:08;94296.53;;;18.80;100.00
8483;BME280;4278;42.668;23.312;2023-06-14T05:30:35;94304.94;;;18.86;100.00
8483;BME280;4278;42.668;23.312;2023-06-14T05:33:02;94301.63;;;18.91;100.00
8483;BME280;4278;42.668;23.312;2023-06-14T05:35:29;94307.47;;;19.02;100.00
8483;BME280;4278;42.668;23.312;2023-06-14T05:37:56;94306.13;;;19.15;100.00
8483;BME280;4278;42.668;23.312;2023-06-14T05:40:24;94306.91;;;19.16;100.00
8483;BME280;4278;42.668;23.312;2023-06-14T05:42:51;94299.59;;;19.22;100.00
8483;BME280;4278;42.668;23.312;2023-06-14T05:45:18;94283.84;;;19.22;100.00
8483;BME280;4278;42.668;23.312;2023-06-14T05:47:45;94315.47;;;19.57;100.00
8483;BME280;4278;42.668;23.312;2023-06-14T05:50:11;94318.91;;;19.79;100.00
8483;BME280;4278;42.668;23.312;2023-06-14T05:52:38;94319.53;;;19.92;100.00
8483;BME280;4278;42.668;23.312;2023-06-14T05:55:05;94319.53;;;20.01;100.00
8483;BME280;4278;42.668;23.312;2023-06-14T05:57:34;94322.63;;;20.03;100.00
8483;BME280;4278;42.668;23.312;2023-06-14T06:00:01;94318.66;;;20.13;100.00
8483;BME280;4278;42.668;23.312;2023-06-14T06:02:31;94321.28;;;20.26;100.00
8483;BME280;4278;42.668;23.312;2023-06-14T06:04:58;94322.94;;;20.23;100.00
8483;BME280;4278;42.668;23.312;2023-06-14T06:07:25;94317.88;;;20.13;100.00
8483;BME280;4278;42.668;23.312;2023-06-14T06:09:51;94318.19;;;20.15;100.00
8483;BME280;4278;42.668;23.312;2023-06-14T06:12:18;94326.91;;;20.04;100.00
8483;BME280;4278;42.668;23.312;2023-06-14T06:14:47;94325.34;;;19.85;100.00
8483;BME280;4278;42.668;23.312;2023-06-14T06:17:13;94324.25;;;19.83;100.00
8483;BME280;4278;42.668;23.312;2023-06-14T06:19:40;94334.22;;;19.80;100.00
8483;BME280;4278;42.668;23.312;2023-06-14T06:22:07;94338.34;;;19.76;100.00
8483;BME280;4278;42.668;23.312;2023-06-14T06:24:34;94338.47;;;19.72;100.00
8483;BME280;4278;42.668;23.312;2023-06-14T06:27:01;94340.72;;;19.56;100.00
8483;BME280;4278;42.668;23.312;2023-06-14T06:29:28;94333.09;;;19.51;100.00
8483;BME280;4278;42.668;23.312;2023-06-14T06:31:56;94335.06;;;19.50;100.00
8483;BME280;4278;42.668;23.312;2023-06-14T06:34:23;94338.16;;;19.52;100.00
8483;BME280;4278;42.668;23.312;2023-06-14T06:36:51;94337.94;;;19.47;100.00
8483;BME280;4278;42.668;23.312;2023-06-14T06:39:18;94313.00;;;19.41;100.00
8483;BME280;4278;42.668;23.312;2023-06-14T06:41:44;94344.72;;;19.55;100.00
8483;BME280;4278;42.668;23.312;2023-06-14T06:44:11;94352.88;;;19.67;100.00
8483;BME280;4278;42.668;23.312;2023-06-14T06:46:38;94338.81;;;19.74;100.00
8483;BME280;4278;42.668;23.312;2023-06-14T06:49:08;94336.66;;;19.78;100.00
8483;BME280;4278;42.668;23.312;2023-06-14T06:51:35;94339.44;;;19.87;100.00
8483;BME280;4278;42.668;23.312;2023-06-14T06:54:02;94344.97;;;19.96;100.00
8483;BME280;4278;42.668;23.312;2023-06-14T06:56:29;94341.28;;;20.08;100.00
8483;BME280;4278;42.668;23.312;2023-06-14T06:58:57;94341.00;;;20.06;100.00
8483;BME280;4278;42.668;23.312;2023-06-14T07:01:24;94343.81;;;20.15;100.00
8483;BME280;4278;42.668;23.312;2023-06-14T07:03:51;94349.91;;;20.19;100.00
8483;BME280;4278;42.668;23.312;2023-06-14T07:06:19;94343.63;;;20.28;100.00
8483;BME280;4278;42.668;23.312;2023-06-14T07:08:46;94341.66;;;20.29;100.00
8483;BME280;4278;42.668;23.312;2023-06-14T07:11:13;94338.44;;;20.39;100.00
8483;BME280;4278;42.668;23.312;2023-06-14T07:13:40;94353.00;;;20.58;100.00
8483;BME280;4278;42.668;23.312;2023-06-14T07:16:07;94346.22;;;20.68;100.00
8483;BME280;4278;42.668;23.312;2023-06-14T07:18:34;94357.25;;;20.95;100.00
8483;BME280;4278;42.668;23.312;2023-06-14T07:21:03;94347.91;;;21.34;100.00
8483;BME280;4278;42.668;23.312;2023-06-14T07:23:31;94358.22;;;21.66;100.00
8483;BME280;4278;42.668;23.312;2023-06-14T07:25:57;94348.03;;;21.81;100.00
8483;BME280;4278;42.668;23.312;2023-06-14T07:28:24;94346.16;;;22.34;100.00
8483;BME280;4278;42.668;23.312;2023-06-14T07:30:51;94355.91;;;22.82;100.00
8483;BME280;4278;42.668;23.312;2023-06-14T07:33:18;94346.84;;;22.82;100.00
8483;BME280;4278;42.668;23.312;2023-06-14T07:35:45;94348.97;;;23.30;100.00
8483;BME280;4278;42.668;23.312;2023-06-14T07:38:13;94352.22;;;23.78;100.00
8483;BME280;4278;42.668;23.312;2023-06-14T07:40:41;94351.41;;;24.47;100.00
8483;BME280;4278;42.668;23.312;2023-06-14T07:43:08;94360.56;;;24.53;100.00
8483;BME280;4278;42.668;23.312;2023-06-14T07:45:34;94354.75;;;24.51;100.00
8483;BME280;4278;42.668;23.312;2023-06-14T07:48:01;94356.34;;;24.77;98.51
8483;BME280;4278;42.668;23.312;2023-06-14T07:50:28;94361.47;;;24.44;99.33
8483;BME280;4278;42.668;23.312;2023-06-14T07:52:56;94362.72;;;24.63;100.00
8483;BME280;4278;42.668;23.312;2023-06-14T07:55:23;94361.94;;;24.83;99.34
8483;BME280;4278;42.668;23.312;2023-06-14T07:57:52;94362.94;;;25.05;96.28
8483;BME280;4278;42.668;23.312;2023-06-14T08:00:19;94368.91;;;25.18;95.25
8483;BME280;4278;42.668;23.312;2023-06-14T08:02:46;94370.38;;;25.14;92.83
8483;BME280;4278;42.668;23.312;2023-06-14T08:05:13;94371.19;;;25.20;92.51
8483;BME280;4278;42.668;23.312;2023-06-14T08:07:40;94377.63;;;25.06;94.51
8483;BME280;4278;42.668;23.312;2023-06-14T08:10:08;94373.72;;;24.98;95.22
8483;BME280;4278;42.668;23.312;2023-06-14T08:12:35;94388.22;;;24.82;95.37
8483;BME280;4278;42.668;23.312;2023-06-14T08:15:05;94383.00;;;24.49;96.91
8483;BME280;4278;42.668;23.312;2023-06-14T08:17:32;94378.72;;;24.28;100.00
8483;BME280;4278;42.668;23.312;2023-06-14T08:19:59;94385.34;;;24.16;100.00
8483;BME280;4278;42.668;23.312;2023-06-14T08:22:26;94390.53;;;23.94;100.00
8483;BME280;4278;42.668;23.312;2023-06-14T08:24:57;94382.63;;;23.87;100.00
8483;BME280;4278;42.668;23.312;2023-06-14T08:27:23;94383.13;;;23.86;100.00
8483;BME280;4278;42.668;23.312;2023-06-14T08:29:51;94385.34;;;23.82;100.00
8483;BME280;4278;42.668;23.312;2023-06-14T08:32:19;94389.00;;;23.58;100.00
8483;BME280;4278;42.668;23.312;2023-06-14T08:34:46;94385.59;;;23.34;100.00
8483;BME280;4278;42.668;23.312;2023-06-14T08:37:13;94387.97;;;23.41;100.00
8483;BME280;4278;42.668;23.312;2023-06-14T08:39:39;94388.81;;;23.47;100.00
8483;BME280;4278;42.668;23.312;2023-06-14T08:42:07;94380.56;;;23.67;100.00
8483;BME280;4278;42.668;23.312;2023-06-14T08:44:36;94382.22;;;23.94;100.00
8483;BME280;4278;42.668;23.312;2023-06-14T08:47:03;94376.75;;;24.14;100.00
8483;BME280;4278;42.668;23.312;2023-06-14T08:49:33;94375.16;;;24.28;98.43
8483;BME280;4278;42.668;23.312;2023-06-14T08:52:01;94375.16;;;24.28;99.34
8483;BME280;4278;42.668;23.312;2023-06-14T08:54:28;94365.22;;;24.21;98.19
8483;BME280;4278;42.668;23.312;2023-06-14T08:56:56;94370.78;;;24.21;98.70
8483;BME280;4278;42.668;23.312;2023-06-14T08:59:24;94376.66;;;24.29;98.69
8483;BME280;4278;42.668;23.312;2023-06-14T09:01:52;94370.22;;;24.17;98.47
8483;BME280;4278;42.668;23.312;2023-06-14T09:04:20;94379.94;;;23.93;99.07
8483;BME280;4278;42.668;23.312;2023-06-14T09:06:48;94368.00;;;24.01;100.00
8483;BME280;4278;42.668;23.312;2023-06-14T09:09:18;94370.44;;;24.54;97.96
8483;BME280;4278;42.668;23.312;2023-06-14T09:11:46;94366.94;;;24.59;95.06
8483;BME280;4278;42.668;23.312;2023-06-14T09:14:13;94367.03;;;24.44;95.38
8483;BME280;4278;42.668;23.312;2023-06-14T09:16:40;94358.34;;;24.17;96.65
8483;BME280;4278;42.668;23.312;2023-06-14T09:19:07;94355.19;;;24.24;97.08
8483;BME280;4278;42.668;23.312;2023-06-14T09:21:34;94355.19;;;24.24;97.51
8483;BME280;4278;42.668;23.312;2023-06-14T09:24:03;94364.13;;;24.13;96.07
8483;BME280;4278;42.668;23.312;2023-06-14T09:26:31;94361.41;;;24.19;96.43
8483;BME280;4278;42.668;23.312;2023-06-14T09:28:58;94354.75;;;24.31;95.06
8483;BME280;4278;42.668;23.312;2023-06-14T09:31:25;94359.63;;;24.36;96.25
8483;BME280;4278;42.668;23.312;2023-06-14T09:33:57;94365.16;;;24.36;94.45
8483;BME280;4278;42.668;23.312;2023-06-14T09:36:25;94365.38;;;24.72;94.56
8483;BME280;4278;42.668;23.312;2023-06-14T09:38:53;94359.81;;;25.49;91.93
8483;BME280;4278;42.668;23.312;2023-06-14T09:41:30;94360.38;;;26.74;88.37
8483;BME280;4278;42.668;23.312;2023-06-14T09:43:58;94352.16;;;27.35;70.78
8483;BME280;4278;42.668;23.312;2023-06-14T09:46:28;94340.00;;;27.49;68.93
8483;BME280;4278;42.668;23.312;2023-06-14T09:48:55;94328.56;;;27.58;67.48
8483;BME280;4278;42.668;23.312;2023-06-14T09:51:22;94324.53;;;27.64;66.53
8483;BME280;4278;42.668;23.312;2023-06-14T09:53:50;94331.63;;;28.72;63.21
8483;BME280;4278;42.668;23.312;2023-06-14T09:56:25;94328.78;;;29.29;60.44
8483;BME280;4278;42.668;23.312;2023-06-14T09:58:55;94326.78;;;29.24;57.52
8483;BME280;4278;42.668;23.312;2023-06-14T10:01:23;94328.94;;;28.50;60.60
8483;BME280;4278;42.668;23.312;2023-06-14T10:03:55;94326.16;;;28.50;61.82
8483;BME280;4278;42.668;23.312;2023-06-14T10:06:26;94316.81;;;28.88;60.03
8483;BME280;4278;42.668;23.312;2023-06-14T10:08:59;94312.34;;;29.50;57.00
8483;BME280;4278;42.668;23.312;2023-06-14T10:11:28;94317.97;;;30.33;52.97
8483;BME280;4278;42.668;23.312;2023-06-14T10:13:56;94314.66;;;31.33;51.25
8483;BME280;4278;42.668;23.312;2023-06-14T10:16:31;94311.84;;;31.64;49.19
8483;BME280;4278;42.668;23.312;2023-06-14T10:19:04;94315.72;;;30.69;49.61
8483;BME280;4278;42.668;23.312;2023-06-14T10:21:43;94301.31;;;31.02;49.93
8483;BME280;4278;42.668;23.312;2023-06-14T10:24:13;94295.78;;;31.65;48.53
8483;BME280;4278;42.668;23.312;2023-06-14T10:26:51;94294.03;;;32.06;48.54
8483;BME280;4278;42.668;23.312;2023-06-14T10:29:18;94304.13;;;32.67;46.47
8483;BME280;4278;42.668;23.312;2023-06-14T10:31:47;94307.97;;;31.67;46.11
8483;BME280;4278;42.668;23.312;2023-06-14T10:34:22;94302.03;;;30.65;49.92
8483;BME280;4278;42.668;23.312;2023-06-14T10:37:03;94303.97;;;29.79;52.29
8483;BME280;4278;42.668;23.312;2023-06-14T10:39:31;94290.06;;;28.92;55.36
8483;BME280;4278;42.668;23.312;2023-06-14T10:42:01;94281.19;;;28.37;57.42
8483;BME280;4278;42.668;23.312;2023-06-14T10:44:43;94289.75;;;27.93;59.58
8483;BME280;4278;42.668;23.312;2023-06-14T10:47:20;94281.13;;;27.58;61.40
8483;BME280;4278;42.668;23.312;2023-06-14T10:49:50;94284.94;;;27.38;61.95
8483;BME280;4278;42.668;23.312;2023-06-14T10:52:22;94273.03;;;27.49;61.77
8483;BME280;4278;42.668;23.312;2023-06-14T10:55:05;94280.44;;;28.31;60.61
8483;BME280;4278;42.668;23.312;2023-06-14T10:57:37;94274.25;;;28.60;58.37
8483;BME280;4278;42.668;23.312;2023-06-14T11:00:06;94263.63;;;28.53;58.82
8483;BME280;4278;42.668;23.312;2023-06-14T11:02:49;94267.22;;;28.88;57.74
8483;BME280;4278;42.668;23.312;2023-06-14T11:05:24;94257.97;;;29.05;56.09
8483;BME280;4278;42.668;23.312;2023-06-14T11:08:12;94254.81;;;28.84;57.36
8483;BME280;4278;42.668;23.312;2023-06-14T11:10:43;94256.91;;;28.15;58.80
8483;BME280;4278;42.668;23.312;2023-06-14T11:13:16;94260.28;;;27.92;60.17
8483;BME280;4278;42.668;23.312;2023-06-14T11:15:44;94252.03;;;28.27;58.25
8483;BME280;4278;42.668;23.312;2023-06-14T11:18:13;94249.16;;;28.95;56.80
8483;BME280;4278;42.668;23.312;2023-06-14T11:20:41;94244.25;;;29.36;54.79
8483;BME280;4278;42.668;23.312;2023-06-14T11:23:17;94255.53;;;30.32;51.48
8483;BME280;4278;42.668;23.312;2023-06-14T11:25:43;94261.97;;;30.46;49.66
8483;BME280;4278;42.668;23.312;2023-06-14T11:28:15;94253.47;;;30.76;49.61
8483;BME280;4278;42.668;23.312;2023-06-14T11:30:42;94246.81;;;30.79;49.67
8483;BME280;4278;42.668;23.312;2023-06-14T11:33:10;94249.22;;;30.88;49.76
8483;BME280;4278;42.668;23.312;2023-06-14T11:35:37;94255.81;;;30.90;49.36
8483;BME280;4278;42.668;23.312;2023-06-14T11:38:04;94245.59;;;30.74;49.25
8483;BME280;4278;42.668;23.312;2023-06-14T11:40:32;94245.00;;;31.13;47.86
8483;BME280;4278;42.668;23.312;2023-06-14T11:43:00;94254.28;;;31.08;47.73
8483;BME280;4278;42.668;23.312;2023-06-14T11:45:29;94251.84;;;31.49;47.91
8483;BME280;4278;42.668;23.312;2023-06-14T11:47:57;94241.53;;;31.70;47.34
8483;BME280;4278;42.668;23.312;2023-06-14T11:50:25;94235.97;;;31.20;47.81
8483;BME280;4278;42.668;23.312;2023-06-14T11:52:53;94229.91;;;31.16;47.61
8483;BME280;4278;42.668;23.312;2023-06-14T11:55:20;94228.41;;;30.40;48.92
8483;BME280;4278;42.668;23.312;2023-06-14T11:57:49;94220.34;;;29.65;50.47
8483;BME280;4278;42.668;23.312;2023-06-14T12:00:16;94218.34;;;29.60;50.92
8483;BME280;4278;42.668;23.312;2023-06-14T12:02:52;94207.94;;;29.55;51.42
8483;BME280;4278;42.668;23.312;2023-06-14T12:05:20;94214.28;;;29.31;53.60
8483;BME280;4278;42.668;23.312;2023-06-14T12:07:47;94209.81;;;29.47;52.60
8483;BME280;4278;42.668;23.312;2023-06-14T12:10:16;94197.94;;;28.70;55.83
8483;BME280;4278;42.668;23.312;2023-06-14T12:12:43;94196.16;;;28.27;57.86
8483;BME280;4278;42.668;23.312;2023-06-14T12:15:11;94204.94;;;27.96;58.08
8483;BME280;4278;42.668;23.312;2023-06-14T12:17:39;94189.63;;;28.59;55.80
8483;BME280;4278;42.668;23.312;2023-06-14T12:20:08;94199.31;;;29.82;52.39
8483;BME280;4278;42.668;23.312;2023-06-14T12:22:39;94200.56;;;30.85;48.66
8483;BME280;4278;42.668;23.312;2023-06-14T12:25:23;94194.38;;;31.37;47.38
8483;BME280;4278;42.668;23.312;2023-06-14T12:27:52;94202.97;;;30.76;48.74
8483;BME280;4278;42.668;23.312;2023-06-14T12:30:20;94185.38;;;30.56;48.88
8483;BME280;4278;42.668;23.312;2023-06-14T12:32:47;94191.59;;;30.07;48.81
8483;BME280;4278;42.668;23.312;2023-06-14T12:35:17;94186.31;;;29.31;51.34
8483;BME280;4278;42.668;23.312;2023-06-14T12:37:46;94178.19;;;28.92;53.42
8483;BME280;4278;42.668;23.312;2023-06-14T12:40:13;94182.44;;;28.29;54.34
8483;BME280;4278;42.668;23.312;2023-06-14T12:42:41;94176.00;;;27.93;56.89
8483;BME280;4278;42.668;23.312;2023-06-14T12:45:08;94174.25;;;27.79;59.64
8483;BME280;4278;42.668;23.312;2023-06-14T12:47:37;94176.63;;;27.48;60.68
8483;BME280;4278;42.668;23.312;2023-06-14T12:50:05;94175.66;;;26.95;62.47
8483;BME280;4278;42.668;23.312;2023-06-14T12:52:32;94160.47;;;26.80;63.11
8483;BME280;4278;42.668;23.312;2023-06-14T12:55:01;94152.31;;;26.54;64.48
8483;BME280;4278;42.668;23.312;2023-06-14T12:57:29;94154.78;;;26.25;66.83
8483;BME280;4278;42.668;23.312;2023-06-14T12:59:56;94162.59;;;26.04;66.90
8483;BME280;4278;42.668;23.312;2023-06-14T13:02:23;94153.59;;;25.73;68.96
8483;BME280;4278;42.668;23.312;2023-06-14T13:04:52;94163.88;;;25.56;70.25
8483;BME280;4278;42.668;23.312;2023-06-14T13:07:19;94159.72;;;25.34;75.10
8483;BME280;4278;42.668;23.312;2023-06-14T13:09:45;94162.84;;;25.11;78.06
8483;BME280;4278;42.668;23.312;2023-06-14T13:12:12;94164.09;;;25.10;78.80
8483;BME280;4278;42.668;23.312;2023-06-14T13:14:39;94165.66;;;25.16;77.26